»·PEaware :: N1507D L88-KSBP

N1507D :: L88-KSBP

FLIGHT INFORMATION

Flight Status: Arrived
Operator: Privately registered:
United States
More flights under this callsign
Pilot: Fabio L. (11512)
Aircraft: CESSNA 172 SKYHAWK
(C172)
More flights by this aircraft type
Origin: L88 New Cuyama
United States
Destination: KSBP San Luis Co Regl
United States
More flights between these airports :: More routes between these airports
Route: VFR
File this flight plan on PilotEdge
Remarks: CAT 2
Altitude:
(Current/Filed)
4,500ft
Speed:
(Current/Filed)
115kts
Departed: 07-Nov-18 08:10 AM
Arrived: 07-Nov-18 08:42 AM
Distance/Time
Traveled:
50nm/0:32
Distance/Time
To Go:
Arrived

Flight Plot

Page will automatically refresh every two minutes.


Map Options




Map Legend


Flown Route
Filed Route
Departure Airport
Arrival Airport
Navaid (VOR, NDB)
Fix

Horizontal Profiles

Position Reports

Time Latitude Longitude Heading Altitude Ground
Speed
07-Nov-18 08:06 34.942854 -119.690286 204 2207ft 0kts
07-Nov-18 08:07 34.942854 -119.690286 204 2207ft 0kts
07-Nov-18 08:08 34.942854 -119.690286 204 2207ft 0kts
07-Nov-18 08:09 34.942854 -119.690286 204 2207ft 0kts
07-Nov-18 08:10 34.942821 -119.690946 282 2207ft 0kts
07-Nov-18 08:11 34.941359 -119.688926 117 2207ft 19kts
07-Nov-18 08:12 34.938251 -119.681363 117 2207ft 21kts
07-Nov-18 08:13 34.942036 -119.692801 292 2419ft 77kts
07-Nov-18 08:14 34.952578 -119.719925 295 2952ft 96kts
07-Nov-18 08:15 34.965244 -119.750933 296 3467ft 107kts
07-Nov-18 08:16 34.978522 -119.782215 297 4157ft 95kts
07-Nov-18 08:17 34.990525 -119.810125 297 4493ft 97kts
07-Nov-18 08:18 35.003106 -119.839346 297 4491ft 97kts
07-Nov-18 08:19 35.015704 -119.868481 297 4491ft 97kts
07-Nov-18 08:20 35.028339 -119.897573 297 4491ft 97kts
07-Nov-18 08:21 35.041056 -119.926728 298 4491ft 97kts
07-Nov-18 08:22 35.053736 -119.955675 298 4491ft 97kts
07-Nov-18 08:23 35.066537 -119.984771 298 4491ft 97kts
07-Nov-18 08:24 35.077203 -120.008922 298 4491ft 97kts
07-Nov-18 08:25 35.092242 -120.042832 298 4491ft 97kts
07-Nov-18 08:26 35.104785 -120.071613 285 4487ft 97kts
07-Nov-18 08:27 35.110683 -120.097487 286 4491ft 97kts
07-Nov-18 08:28 35.119403 -120.134402 286 4491ft 97kts
07-Nov-18 08:29 35.126843 -120.166155 286 4491ft 97kts
07-Nov-18 08:30 35.133025 -120.192571 286 4491ft 97kts
07-Nov-18 08:31 35.141673 -120.229575 286 4491ft 97kts
07-Nov-18 08:32 35.147848 -120.256031 286 4491ft 97kts
07-Nov-18 08:33 35.155246 -120.287758 286 4491ft 97kts
07-Nov-18 08:34 35.163875 -120.324834 286 4491ft 97kts
07-Nov-18 08:35 35.171810 -120.358659 286 4166ft 107kts
07-Nov-18 08:36 35.176926 -120.387531 264 3743ft 104kts
07-Nov-18 08:37 35.172596 -120.422224 261 3243ft 103kts
07-Nov-18 08:38 35.168537 -120.456854 262 2743ft 103kts
07-Nov-18 08:39 35.164921 -120.487934 261 2649ft 90kts
07-Nov-18 08:40 35.169659 -120.519913 302 2643ft 109kts
07-Nov-18 08:41 35.187228 -120.551674 310 2195ft 118kts
07-Nov-18 08:42 35.206078 -120.582494 305 1152ft 100kts
07-Nov-18 08:43 35.220144 -120.608280 298 907ft 91kts
07-Nov-18 08:44 35.233292 -120.633681 303 258ft 66kts
07-Nov-18 08:45 35.239837 -120.643983 41 215ft 0kts
07-Nov-18 08:46 35.239837 -120.643983 41 215ft 0kts
07-Nov-18 08:47 35.239837 -120.643983 41 215ft 0kts
07-Nov-18 08:48 35.238057 -120.640201 85 215ft 15kts
07-Nov-18 08:49 35.238537 -120.639935 297 215ft 0kts
07-Nov-18 08:50 35.238536 -120.639935 297 215ft 0kts
07-Nov-18 08:51 35.238536 -120.639935 297 215ft 0kts
07-Nov-18 08:52 35.238536 -120.639935 297 215ft 0kts
07-Nov-18 08:53 35.238536 -120.639935 297 215ft 0kts
07-Nov-18 08:54 35.238536 -120.639935 297 215ft 0kts
07-Nov-18 08:55 35.238536 -120.639935 297 215ft 0kts
07-Nov-18 08:56 35.238536 -120.639935 297 215ft 0kts
07-Nov-18 08:57 35.238536 -120.639935 297 215ft 0kts
07-Nov-18 08:58 35.238536 -120.639935 297 215ft 0kts
07-Nov-18 08:59 35.238536 -120.639935 297 215ft 0kts

Navigation Log

Ident Type
1. L88 Airport
2. KSBP Airport